sensor_id;sensor_type;location;lat;lon;timestamp;temperature;humidity
6788;DHT22;3431;47.966;10.268;2022-10-26T00:00:09;10.80;99.90
6788;DHT22;3431;47.966;10.268;2022-10-26T00:00:33;10.80;99.90
6788;DHT22;3431;47.966;10.268;2022-10-26T00:01:03;10.80;99.90
6788;DHT22;3431;47.966;10.268;2022-10-26T00:01:24;10.80;99.90
6788;DHT22;3431;47.966;10.268;2022-10-26T00:01:47;10.70;99.90
6788;DHT22;3431;47.966;10.268;2022-10-26T00:02:09;10.70;99.90
6788;DHT22;3431;47.966;10.268;2022-10-26T00:02:32;10.70;99.90
6788;DHT22;3431;47.966;10.268;2022-10-26T00:02:53;10.70;99.90
6788;DHT22;3431;47.966;10.268;2022-10-26T00:03:15;10.70;99.90
6788;DHT22;3431;47.966;10.268;2022-10-26T00:03:39;10.70;99.90
6788;DHT22;3431;47.966;10.268;2022-10-26T00:04:01;10.70;99.90
6788;DHT22;3431;47.966;10.268;2022-10-26T00:04:23;10.70;99.90
6788;DHT22;3431;47.966;10.268;2022-10-26T00:04:45;10.60;99.90
6788;DHT22;3431;47.966;10.268;2022-10-26T00:05:08;10.60;99.90
6788;DHT22;3431;47.966;10.268;2022-10-26T00:05:32;10.70;99.90
6788;DHT22;3431;47.966;10.268;2022-10-26T00:05:53;10.70;99.90
6788;DHT22;3431;47.966;10.268;2022-10-26T00:06:17;10.70;99.90
6788;DHT22;3431;47.966;10.268;2022-10-26T00:06:39;10.60;99.90
6788;DHT22;3431;47.966;10.268;2022-10-26T00:07:01;10.70;99.90
6788;DHT22;3431;47.966;10.268;2022-10-26T00:07:22;10.70;99.90
6788;DHT22;3431;47.966;10.268;2022-10-26T00:07:44;10.70;99.90
6788;DHT22;3431;47.966;10.268;2022-10-26T00:08:07;10.70;99.90
6788;DHT22;3431;47.966;10.268;2022-10-26T00:08:28;10.70;99.90
6788;DHT22;3431;47.966;10.268;2022-10-26T00:08:51;10.70;99.90
6788;DHT22;3431;47.966;10.268;2022-10-26T00:09:12;10.70;99.90
6788;DHT22;3431;47.966;10.268;2022-10-26T00:09:35;10.70;99.90
6788;DHT22;3431;47.966;10.268;2022-10-26T00:09:56;10.70;99.90
6788;DHT22;3431;47.966;10.268;2022-10-26T00:10:18;10.70;99.90
6788;DHT22;3431;47.966;10.268;2022-10-26T00:10:41;10.70;99.90
6788;DHT22;3431;47.966;10.268;2022-10-26T00:11:04;10.70;99.90
6788;DHT22;3431;47.966;10.268;2022-10-26T00:11:26;10.70;99.90
6788;DHT22;3431;47.966;10.268;2022-10-26T00:11:48;10.80;99.90
6788;DHT22;3431;47.966;10.268;2022-10-26T00:12:10;10.80;99.90
6788;DHT22;3431;47.966;10.268;2022-10-26T00:12:32;10.80;99.90
6788;DHT22;3431;47.966;10.268;2022-10-26T00:12:53;10.80;99.90
6788;DHT22;3431;47.966;10.268;2022-10-26T00:13:15;10.70;99.90
6788;DHT22;3431;47.966;10.268;2022-10-26T00:13:37;10.80;99.90
6788;DHT22;3431;47.966;10.268;2022-10-26T00:14:00;10.80;99.90
6788;DHT22;3431;47.966;10.268;2022-10-26T00:14:22;10.80;99.90
6788;DHT22;3431;47.966;10.268;2022-10-26T00:14:43;10.80;99.90
6788;DHT22;3431;47.966;10.268;2022-10-26T00:15:05;10.80;99.90
6788;DHT22;3431;47.966;10.268;2022-10-26T00:15:28;10.80;99.90
6788;DHT22;3431;47.966;10.268;2022-10-26T00:15:50;10.80;99.90
6788;DHT22;3431;47.966;10.268;2022-10-26T00:16:14;10.80;99.90
6788;DHT22;3431;47.966;10.268;2022-10-26T00:16:36;10.80;99.90
6788;DHT22;3431;47.966;10.268;2022-10-26T00:16:58;10.80;99.90
6788;DHT22;3431;47.966;10.268;2022-10-26T00:17:21;10.80;99.90
6788;DHT22;3431;47.966;10.268;2022-10-26T00:17:43;10.80;99.90
6788;DHT22;3431;47.966;10.268;2022-10-26T00:18:05;10.70;99.90
6788;DHT22;3431;47.966;10.268;2022-10-26T00:18:27;10.70;99.90
6788;DHT22;3431;47.966;10.268;2022-10-26T00:18:48;10.70;99.90
6788;DHT22;3431;47.966;10.268;2022-10-26T00:19:11;10.60;99.90
6788;DHT22;3431;47.966;10.268;2022-10-26T00:19:33;10.60;99.90
6788;DHT22;3431;47.966;10.268;2022-10-26T00:19:55;10.60;99.90
6788;DHT22;3431;47.966;10.268;2022-10-26T00:20:18;10.50;99.90
6788;DHT22;3431;47.966;10.268;2022-10-26T00:20:40;8.80;99.90
6788;DHT22;3431;47.966;10.268;2022-10-26T00:21:02;10.40;99.90
6788;DHT22;3431;47.966;10.268;2022-10-26T00:21:24;10.40;99.90
6788;DHT22;3431;47.966;10.268;2022-10-26T00:21:46;10.40;99.90
6788;DHT22;3431;47.966;10.268;2022-10-26T00:22:08;10.30;99.90
6788;DHT22;3431;47.966;10.268;2022-10-26T00:22:30;10.30;99.90
6788;DHT22;3431;47.966;10.268;2022-10-26T00:22:51;10.20;99.90
6788;DHT22;3431;47.966;10.268;2022-10-26T00:23:13;10.20;99.90
6788;DHT22;3431;47.966;10.268;2022-10-26T00:23:35;10.20;99.90
6788;DHT22;3431;47.966;10.268;2022-10-26T00:23:58;10.20;99.90
6788;DHT22;3431;47.966;10.268;2022-10-26T00:24:19;10.20;99.90
6788;DHT22;3431;47.966;10.268;2022-10-26T00:24:41;10.20;99.90
6788;DHT22;3431;47.966;10.268;2022-10-26T00:25:04;10.10;99.90
6788;DHT22;3431;47.966;10.268;2022-10-26T00:25:26;10.10;99.90
6788;DHT22;3431;47.966;10.268;2022-10-26T00:25:53;10.20;99.90
6788;DHT22;3431;47.966;10.268;2022-10-26T00:26:17;10.10;99.90
6788;DHT22;3431;47.966;10.268;2022-10-26T00:26:39;10.10;99.90
6788;DHT22;3431;47.966;10.268;2022-10-26T00:27:01;10.10;99.90
6788;DHT22;3431;47.966;10.268;2022-10-26T00:27:22;10.10;99.90
6788;DHT22;3431;47.966;10.268;2022-10-26T00:27:44;10.10;99.90
6788;DHT22;3431;47.966;10.268;2022-10-26T00:28:06;10.10;99.90
6788;DHT22;3431;47.966;10.268;2022-10-26T00:28:28;10.10;99.90
6788;DHT22;3431;47.966;10.268;2022-10-26T00:28:52;10.10;99.90
6788;DHT22;3431;47.966;10.268;2022-10-26T00:29:13;10.10;99.90
6788;DHT22;3431;47.966;10.268;2022-10-26T00:29:35;10.10;99.90
6788;DHT22;3431;47.966;10.268;2022-10-26T00:29:58;10.10;99.90
6788;DHT22;3431;47.966;10.268;2022-10-26T00:30:19;10.10;99.90
6788;DHT22;3431;47.966;10.268;2022-10-26T00:30:41;10.10;99.90
6788;DHT22;3431;47.966;10.268;2022-10-26T00:31:03;10.20;99.90
6788;DHT22;3431;47.966;10.268;2022-10-26T00:31:25;10.20;99.90
6788;DHT22;3431;47.966;10.268;2022-10-26T00:31:47;10.20;99.90
6788;DHT22;3431;47.966;10.268;2022-10-26T00:32:09;10.20;99.90
6788;DHT22;3431;47.966;10.268;2022-10-26T00:32:31;10.20;99.90
6788;DHT22;3431;47.966;10.268;2022-10-26T00:32:54;10.20;99.90
6788;DHT22;3431;47.966;10.268;2022-10-26T00:33:16;10.20;99.90
6788;DHT22;3431;47.966;10.268;2022-10-26T00:33:38;10.30;99.90
6788;DHT22;3431;47.966;10.268;2022-10-26T00:34:00;10.30;99.90
6788;DHT22;3431;47.966;10.268;2022-10-26T00:34:21;10.30;99.90
6788;DHT22;3431;47.966;10.268;2022-10-26T00:34:44;10.30;99.90
6788;DHT22;3431;47.966;10.268;2022-10-26T00:35:06;10.40;99.90
6788;DHT22;3431;47.966;10.268;2022-10-26T00:35:27;10.40;99.90
6788;DHT22;3431;47.966;10.268;2022-10-26T00:35:52;10.40;99.90
6788;DHT22;3431;47.966;10.268;2022-10-26T00:36:14;10.40;99.90
6788;DHT22;3431;47.966;10.268;2022-10-26T00:36:37;10.40;99.90
6788;DHT22;3431;47.966;10.268;2022-10-26T00:36:58;10.40;99.90
6788;DHT22;3431;47.966;10.268;2022-10-26T00:37:20;10.50;99.90
6788;DHT22;3431;47.966;10.268;2022-10-26T00:37:42;10.50;99.90
6788;DHT22;3431;47.966;10.268;2022-10-26T00:38:04;10.50;99.90
6788;DHT22;3431;47.966;10.268;2022-10-26T00:38:26;10.50;99.90
6788;DHT22;3431;47.966;10.268;2022-10-26T00:38:48;10.60;99.90
6788;DHT22;3431;47.966;10.268;2022-10-26T00:39:11;10.60;99.90
6788;DHT22;3431;47.966;10.268;2022-10-26T00:39:34;10.60;99.90
6788;DHT22;3431;47.966;10.268;2022-10-26T00:39:55;10.60;99.90
6788;DHT22;3431;47.966;10.268;2022-10-26T00:40:17;10.60;99.90
6788;DHT22;3431;47.966;10.268;2022-10-26T00:40:38;10.60;99.90
6788;DHT22;3431;47.966;10.268;2022-10-26T00:41:01;10.70;99.90
6788;DHT22;3431;47.966;10.268;2022-10-26T00:41:25;10.60;99.90
6788;DHT22;3431;47.966;10.268;2022-10-26T00:41:46;10.60;99.90
6788;DHT22;3431;47.966;10.268;2022-10-26T00:42:10;10.60;99.90
6788;DHT22;3431;47.966;10.268;2022-10-26T00:42:33;10.60;99.90
6788;DHT22;3431;47.966;10.268;2022-10-26T00:42:55;10.60;99.90
6788;DHT22;3431;47.966;10.268;2022-10-26T00:43:35;10.60;99.90
6788;DHT22;3431;47.966;10.268;2022-10-26T00:43:57;10.60;99.90
6788;DHT22;3431;47.966;10.268;2022-10-26T00:44:55;10.60;99.90
6788;DHT22;3431;47.966;10.268;2022-10-26T00:45:19;10.50;99.90
6788;DHT22;3431;47.966;10.268;2022-10-26T00:45:42;10.50;99.90
6788;DHT22;3431;47.966;10.268;2022-10-26T00:46:08;10.50;99.90
6788;DHT22;3431;47.966;10.268;2022-10-26T00:46:34;10.50;99.90
6788;DHT22;3431;47.966;10.268;2022-10-26T00:46:57;10.50;99.90
6788;DHT22;3431;47.966;10.268;2022-10-26T00:47:24;10.50;99.90
6788;DHT22;3431;47.966;10.268;2022-10-26T00:47:51;10.50;99.90
6788;DHT22;3431;47.966;10.268;2022-10-26T00:48:21;10.50;99.90
6788;DHT22;3431;47.966;10.268;2022-10-26T00:48:48;10.60;99.90
6788;DHT22;3431;47.966;10.268;2022-10-26T00:49:14;10.60;99.90
6788;DHT22;3431;47.966;10.268;2022-10-26T00:49:37;10.60;99.90
6788;DHT22;3431;47.966;10.268;2022-10-26T00:50:03;10.60;99.90
6788;DHT22;3431;47.966;10.268;2022-10-26T00:50:29;10.50;99.90
6788;DHT22;3431;47.966;10.268;2022-10-26T00:50:53;10.70;99.90
6788;DHT22;3431;47.966;10.268;2022-10-26T00:51:21;10.70;99.90
6788;DHT22;3431;47.966;10.268;2022-10-26T00:51:47;10.70;99.90
6788;DHT22;3431;47.966;10.268;2022-10-26T00:52:12;10.70;99.90
6788;DHT22;3431;47.966;10.268;2022-10-26T00:52:34;10.70;99.90
6788;DHT22;3431;47.966;10.268;2022-10-26T00:52:57;10.70;99.90
6788;DHT22;3431;47.966;10.268;2022-10-26T00:53:19;10.80;99.90
6788;DHT22;3431;47.966;10.268;2022-10-26T00:53:41;10.80;99.90
6788;DHT22;3431;47.966;10.268;2022-10-26T00:54:08;10.80;99.90
6788;DHT22;3431;47.966;10.268;2022-10-26T00:54:31;10.80;99.90
6788;DHT22;3431;47.966;10.268;2022-10-26T00:54:53;10.80;99.90
6788;DHT22;3431;47.966;10.268;2022-10-26T00:55:16;10.80;99.90
6788;DHT22;3431;47.966;10.268;2022-10-26T00:55:44;10.80;99.90
6788;DHT22;3431;47.966;10.268;2022-10-26T00:56:07;10.90;99.90
6788;DHT22;3431;47.966;10.268;2022-10-26T00:56:29;10.90;99.90
6788;DHT22;3431;47.966;10.268;2022-10-26T00:56:54;10.80;99.90
6788;DHT22;3431;47.966;10.268;2022-10-26T00:57:16;10.90;99.90
6788;DHT22;3431;47.966;10.268;2022-10-26T00:57:39;10.90;99.90
6788;DHT22;3431;47.966;10.268;2022-10-26T00:58:01;10.90;99.90
6788;DHT22;3431;47.966;10.268;2022-10-26T00:58:25;10.90;99.90
6788;DHT22;3431;47.966;10.268;2022-10-26T00:58:47;11.00;99.90
6788;DHT22;3431;47.966;10.268;2022-10-26T00:59:10;11.00;99.90
6788;DHT22;3431;47.966;10.268;2022-10-26T00:59:32;11.00;99.90
6788;DHT22;3431;47.966;10.268;2022-10-26T00:59:55;11.00;99.90
6788;DHT22;3431;47.966;10.268;2022-10-26T01:00:18;11.00;99.90
6788;DHT22;3431;47.966;10.268;2022-10-26T01:00:41;11.00;99.90
6788;DHT22;3431;47.966;10.268;2022-10-26T01:01:02;11.00;99.90
6788;DHT22;3431;47.966;10.268;2022-10-26T01:01:24;11.10;99.90
6788;DHT22;3431;47.966;10.268;2022-10-26T01:01:46;11.10;99.90
6788;DHT22;3431;47.966;10.268;2022-10-26T01:02:10;11.10;99.90
6788;DHT22;3431;47.966;10.268;2022-10-26T01:02:33;11.00;99.90
6788;DHT22;3431;47.966;10.268;2022-10-26T01:02:56;11.10;99.90
6788;DHT22;3431;47.966;10.268;2022-10-26T01:03:21;11.10;99.90
6788;DHT22;3431;47.966;10.268;2022-10-26T01:03:45;11.10;99.90
6788;DHT22;3431;47.966;10.268;2022-10-26T01:04:07;11.20;99.90
6788;DHT22;3431;47.966;10.268;2022-10-26T01:04:29;11.20;99.90
6788;DHT22;3431;47.966;10.268;2022-10-26T01:04:51;11.20;99.90
6788;DHT22;3431;47.966;10.268;2022-10-26T01:05:14;11.20;99.90
6788;DHT22;3431;47.966;10.268;2022-10-26T01:05:40;11.20;99.90
6788;DHT22;3431;47.966;10.268;2022-10-26T01:06:03;11.30;99.90
6788;DHT22;3431;47.966;10.268;2022-10-26T01:06:26;11.30;99.90
6788;DHT22;3431;47.966;10.268;2022-10-26T01:06:49;11.30;99.90
6788;DHT22;3431;47.966;10.268;2022-10-26T01:07:11;11.30;99.90
6788;DHT22;3431;47.966;10.268;2022-10-26T01:07:34;11.30;99.90
6788;DHT22;3431;47.966;10.268;2022-10-26T01:07:57;11.30;99.90
6788;DHT22;3431;47.966;10.268;2022-10-26T01:08:18;11.30;99.90
6788;DHT22;3431;47.966;10.268;2022-10-26T01:08:42;11.30;99.90
6788;DHT22;3431;47.966;10.268;2022-10-26T01:09:04;11.30;99.90
6788;DHT22;3431;47.966;10.268;2022-10-26T01:09:26;11.40;99.90
6788;DHT22;3431;47.966;10.268;2022-10-26T01:09:48;11.40;99.90
6788;DHT22;3431;47.966;10.268;2022-10-26T01:10:09;11.40;99.90
6788;DHT22;3431;47.966;10.268;2022-10-26T01:10:35;11.40;99.90
6788;DHT22;3431;47.966;10.268;2022-10-26T01:10:59;11.40;99.90
6788;DHT22;3431;47.966;10.268;2022-10-26T01:11:20;11.40;99.90
6788;DHT22;3431;47.966;10.268;2022-10-26T01:11:43;11.40;99.90
6788;DHT22;3431;47.966;10.268;2022-10-26T01:12:05;11.50;99.90
6788;DHT22;3431;47.966;10.268;2022-10-26T01:12:26;11.40;99.90
6788;DHT22;3431;47.966;10.268;2022-10-26T01:12:48;11.50;99.90
6788;DHT22;3431;47.966;10.268;2022-10-26T01:13:10;11.40;99.90
6788;DHT22;3431;47.966;10.268;2022-10-26T01:13:34;11.50;99.90
6788;DHT22;3431;47.966;10.268;2022-10-26T01:13:59;11.50;99.90
6788;DHT22;3431;47.966;10.268;2022-10-26T01:14:23;11.50;99.90
6788;DHT22;3431;47.966;10.268;2022-10-26T01:14:46;11.50;99.90
6788;DHT22;3431;47.966;10.268;2022-10-26T01:15:08;11.50;99.90
6788;DHT22;3431;47.966;10.268;2022-10-26T01:15:37;11.50;99.90
6788;DHT22;3431;47.966;10.268;2022-10-26T01:16:11;11.50;99.90
6788;DHT22;3431;47.966;10.268;2022-10-26T01:16:47;11.50;99.90
6788;DHT22;3431;47.966;10.268;2022-10-26T01:17:26;11.50;99.90
6788;DHT22;3431;47.966;10.268;2022-10-26T01:17:53;11.50;99.90
6788;DHT22;3431;47.966;10.268;2022-10-26T01:18:23;11.50;99.90
6788;DHT22;3431;47.966;10.268;2022-10-26T01:18:56;11.50;99.90
6788;DHT22;3431;47.966;10.268;2022-10-26T01:19:51;11.50;99.90
6788;DHT22;3431;47.966;10.268;2022-10-26T01:21:32;11.60;99.90
6788;DHT22;3431;47.966;10.268;2022-10-26T01:22:01;11.60;99.90
6788;DHT22;3431;47.966;10.268;2022-10-26T01:22:26;11.60;99.90
6788;DHT22;3431;47.966;10.268;2022-10-26T01:22:56;11.60;99.90
6788;DHT22;3431;47.966;10.268;2022-10-26T01:23:28;11.60;99.90
6788;DHT22;3431;47.966;10.268;2022-10-26T01:24:09;11.60;99.90
6788;DHT22;3431;47.966;10.268;2022-10-26T01:25:00;11.60;99.90
6788;DHT22;3431;47.966;10.268;2022-10-26T01:25:40;11.60;99.90
6788;DHT22;3431;47.966;10.268;2022-10-26T01:26:34;11.50;99.90
6788;DHT22;3431;47.966;10.268;2022-10-26T01:27:11;11.50;99.90
6788;DHT22;3431;47.966;10.268;2022-10-26T01:27:40;11.50;99.90
6788;DHT22;3431;47.966;10.268;2022-10-26T01:28:06;11.50;99.90
6788;DHT22;3431;47.966;10.268;2022-10-26T01:28:47;11.50;99.90
6788;DHT22;3431;47.966;10.268;2022-10-26T01:29:36;11.50;99.90
6788;DHT22;3431;47.966;10.268;2022-10-26T01:30:27;11.50;99.90
6788;DHT22;3431;47.966;10.268;2022-10-26T01:30:53;11.60;99.90
6788;DHT22;3431;47.966;10.268;2022-10-26T01:31:20;11.60;99.90
6788;DHT22;3431;47.966;10.268;2022-10-26T01:31:47;11.40;99.90
6788;DHT22;3431;47.966;10.268;2022-10-26T01:32:14;11.60;99.90
6788;DHT22;3431;47.966;10.268;2022-10-26T01:32:45;11.60;99.90
6788;DHT22;3431;47.966;10.268;2022-10-26T01:33:28;11.60;99.90
6788;DHT22;3431;47.966;10.268;2022-10-26T01:33:55;11.60;99.90
6788;DHT22;3431;47.966;10.268;2022-10-26T01:34:23;11.60;99.90
6788;DHT22;3431;47.966;10.268;2022-10-26T01:34:49;11.60;99.90
6788;DHT22;3431;47.966;10.268;2022-10-26T01:35:16;11.60;99.90
6788;DHT22;3431;47.966;10.268;2022-10-26T01:35:47;11.60;99.90
6788;DHT22;3431;47.966;10.268;2022-10-26T01:36:12;11.70;99.90
6788;DHT22;3431;47.966;10.268;2022-10-26T01:36:40;11.70;99.90
6788;DHT22;3431;47.966;10.268;2022-10-26T01:37:07;11.70;99.90
6788;DHT22;3431;47.966;10.268;2022-10-26T01:37:33;11.70;99.90
6788;DHT22;3431;47.966;10.268;2022-10-26T01:38:03;11.70;99.90
6788;DHT22;3431;47.966;10.268;2022-10-26T01:38:31;11.60;99.90
6788;DHT22;3431;47.966;10.268;2022-10-26T01:38:57;11.60;99.90
6788;DHT22;3431;47.966;10.268;2022-10-26T01:39:24;11.60;99.90
6788;DHT22;3431;47.966;10.268;2022-10-26T01:39:52;11.70;99.90
6788;DHT22;3431;47.966;10.268;2022-10-26T01:40:19;11.70;99.90
6788;DHT22;3431;47.966;10.268;2022-10-26T01:40:45;11.60;99.90
6788;DHT22;3431;47.966;10.268;2022-10-26T01:41:11;11.60;99.90
6788;DHT22;3431;47.966;10.268;2022-10-26T01:41:37;11.60;99.90
6788;DHT22;3431;47.966;10.268;2022-10-26T01:42:00;11.70;99.90
6788;DHT22;3431;47.966;10.268;2022-10-26T01:42:25;11.70;99.90
6788;DHT22;3431;47.966;10.268;2022-10-26T01:42:50;11.70;99.90
6788;DHT22;3431;47.966;10.268;2022-10-26T01:43:14;11.70;99.90
6788;DHT22;3431;47.966;10.268;2022-10-26T01:43:40;11.70;99.90
6788;DHT22;3431;47.966;10.268;2022-10-26T01:44:06;11.70;99.90
6788;DHT22;3431;47.966;10.268;2022-10-26T01:44:32;11.70;99.90
6788;DHT22;3431;47.966;10.268;2022-10-26T01:44:56;11.70;99.90
6788;DHT22;3431;47.966;10.268;2022-10-26T01:45:21;11.70;99.90
6788;DHT22;3431;47.966;10.268;2022-10-26T01:45:46;11.70;99.90
6788;DHT22;3431;47.966;10.268;2022-10-26T01:46:10;11.70;99.90
6788;DHT22;3431;47.966;10.268;2022-10-26T01:46:35;11.70;99.90
6788;DHT22;3431;47.966;10.268;2022-10-26T01:46:59;11.70;99.90
6788;DHT22;3431;47.966;10.268;2022-10-26T01:47:22;11.70;99.90
6788;DHT22;3431;47.966;10.268;2022-10-26T01:47:46;11.70;99.90
6788;DHT22;3431;47.966;10.268;2022-10-26T01:48:10;11.70;99.90
6788;DHT22;3431;47.966;10.268;2022-10-26T01:48:33;11.60;99.90
6788;DHT22;3431;47.966;10.268;2022-10-26T01:49:01;11.70;99.90
6788;DHT22;3431;47.966;10.268;2022-10-26T01:49:27;11.70;99.90
6788;DHT22;3431;47.966;10.268;2022-10-26T01:49:52;11.70;99.90
6788;DHT22;3431;47.966;10.268;2022-10-26T01:50:18;11.70;99.90
6788;DHT22;3431;47.966;10.268;2022-10-26T01:50:43;11.70;99.90
6788;DHT22;3431;47.966;10.268;2022-10-26T01:51:07;11.70;99.90
6788;DHT22;3431;47.966;10.268;2022-10-26T01:51:31;12.10;99.90
6788;DHT22;3431;47.966;10.268;2022-10-26T01:51:54;11.70;99.90
6788;DHT22;3431;47.966;10.268;2022-10-26T01:52:17;11.70;99.90
6788;DHT22;3431;47.966;10.268;2022-10-26T01:52:39;11.70;99.90
6788;DHT22;3431;47.966;10.268;2022-10-26T01:53:01;11.70;99.90
6788;DHT22;3431;47.966;10.268;2022-10-26T01:53:25;11.70;99.90
6788;DHT22;3431;47.966;10.268;2022-10-26T01:53:47;11.70;99.90
6788;DHT22;3431;47.966;10.268;2022-10-26T01:54:08;11.70;99.90
6788;DHT22;3431;47.966;10.268;2022-10-26T01:54:33;11.70;99.90
6788;DHT22;3431;47.966;10.268;2022-10-26T01:55:00;11.70;99.90
6788;DHT22;3431;47.966;10.268;2022-10-26T01:55:39;11.70;99.90
6788;DHT22;3431;47.966;10.268;2022-10-26T01:56:04;11.70;99.90
6788;DHT22;3431;47.966;10.268;2022-10-26T01:56:27;11.70;99.90
6788;DHT22;3431;47.966;10.268;2022-10-26T01:56:52;11.70;99.90
6788;DHT22;3431;47.966;10.268;2022-10-26T01:57:18;11.70;99.90
6788;DHT22;3431;47.966;10.268;2022-10-26T01:57:41;11.70;99.90
6788;DHT22;3431;47.966;10.268;2022-10-26T01:58:10;11.70;99.90
6788;DHT22;3431;47.966;10.268;2022-10-26T01:59:52;11.70;99.90
6788;DHT22;3431;47.966;10.268;2022-10-26T02:00:18;11.70;99.90
6788;DHT22;3431;47.966;10.268;2022-10-26T02:00:45;11.70;99.90
6788;DHT22;3431;47.966;10.268;2022-10-26T02:01:21;11.70;99.90
6788;DHT22;3431;47.966;10.268;2022-10-26T02:02:15;11.70;99.90
6788;DHT22;3431;47.966;10.268;2022-10-26T02:03:00;11.70;99.90
6788;DHT22;3431;47.966;10.268;2022-10-26T02:03:29;11.70;99.90
6788;DHT22;3431;47.966;10.268;2022-10-26T02:04:00;11.70;99.90
6788;DHT22;3431;47.966;10.268;2022-10-26T02:04:34;11.70;99.90
6788;DHT22;3431;47.966;10.268;2022-10-26T02:05:59;11.70;99.90
6788;DHT22;3431;47.966;10.268;2022-10-26T02:06:32;11.70;99.90
6788;DHT22;3431;47.966;10.268;2022-10-26T02:07:00;11.70;99.90
6788;DHT22;3431;47.966;10.268;2022-10-26T02:07:29;11.70;99.90
6788;DHT22;3431;47.966;10.268;2022-10-26T02:07:56;11.60;99.90
6788;DHT22;3431;47.966;10.268;2022-10-26T02:08:40;11.70;99.90
6788;DHT22;3431;47.966;10.268;2022-10-26T02:09:15;11.60;99.90
6788;DHT22;3431;47.966;10.268;2022-10-26T02:09:48;11.60;99.90
6788;DHT22;3431;47.966;10.268;2022-10-26T02:10:21;11.60;99.90
6788;DHT22;3431;47.966;10.268;2022-10-26T02:10:53;11.60;99.90
6788;DHT22;3431;47.966;10.268;2022-10-26T02:11:24;11.60;99.90
6788;DHT22;3431;47.966;10.268;2022-10-26T02:11:52;11.50;99.90
6788;DHT22;3431;47.966;10.268;2022-10-26T02:12:20;11.50;99.90
6788;DHT22;3431;47.966;10.268;2022-10-26T02:12:50;11.50;99.90
6788;DHT22;3431;47.966;10.268;2022-10-26T02:13:19;11.40;99.90
6788;DHT22;3431;47.966;10.268;2022-10-26T02:13:47;11.40;99.90
6788;DHT22;3431;47.966;10.268;2022-10-26T02:14:17;11.40;99.90
6788;DHT22;3431;47.966;10.268;2022-10-26T02:14:47;11.40;99.90
6788;DHT22;3431;47.966;10.268;2022-10-26T02:15:15;11.40;99.90
6788;DHT22;3431;47.966;10.268;2022-10-26T02:15:47;11.40;99.90
6788;DHT22;3431;47.966;10.268;2022-10-26T02:16:19;11.40;99.90
6788;DHT22;3431;47.966;10.268;2022-10-26T02:16:50;11.40;99.90
6788;DHT22;3431;47.966;10.268;2022-10-26T02:17:18;11.40;99.90
6788;DHT22;3431;47.966;10.268;2022-10-26T02:17:48;11.40;99.90
6788;DHT22;3431;47.966;10.268;2022-10-26T02:18:19;11.40;99.90
6788;DHT22;3431;47.966;10.268;2022-10-26T02:18:52;11.30;99.90
6788;DHT22;3431;47.966;10.268;2022-10-26T02:19:23;11.40;99.90
6788;DHT22;3431;47.966;10.268;2022-10-26T02:19:50;11.40;99.90
6788;DHT22;3431;47.966;10.268;2022-10-26T02:20:17;11.30;99.90
6788;DHT22;3431;47.966;10.268;2022-10-26T02:20:45;11.30;99.90
6788;DHT22;3431;47.966;10.268;2022-10-26T02:21:11;11.30;99.90
6788;DHT22;3431;47.966;10.268;2022-10-26T02:21:37;11.30;99.90
6788;DHT22;3431;47.966;10.268;2022-10-26T02:22:05;11.30;99.90
6788;DHT22;3431;47.966;10.268;2022-10-26T02:22:30;11.30;99.90
6788;DHT22;3431;47.966;10.268;2022-10-26T02:22:54;11.30;99.90
6788;DHT22;3431;47.966;10.268;2022-10-26T02:23:18;11.30;99.90
6788;DHT22;3431;47.966;10.268;2022-10-26T02:23:43;11.30;99.90
6788;DHT22;3431;47.966;10.268;2022-10-26T02:24:08;11.30;99.90
6788;DHT22;3431;47.966;10.268;2022-10-26T02:24:32;11.30;99.90
6788;DHT22;3431;47.966;10.268;2022-10-26T02:24:55;11.30;99.90
6788;DHT22;3431;47.966;10.268;2022-10-26T02:25:22;11.30;99.90
6788;DHT22;3431;47.966;10.268;2022-10-26T02:25:46;11.30;99.90
6788;DHT22;3431;47.966;10.268;2022-10-26T02:26:11;11.30;99.90
6788;DHT22;3431;47.966;10.268;2022-10-26T02:26:35;11.30;99.90
6788;DHT22;3431;47.966;10.268;2022-10-26T02:26:59;11.30;99.90
6788;DHT22;3431;47.966;10.268;2022-10-26T02:27:23;11.30;99.90
6788;DHT22;3431;47.966;10.268;2022-10-26T02:27:50;11.30;99.90
6788;DHT22;3431;47.966;10.268;2022-10-26T02:28:16;11.30;99.90
6788;DHT22;3431;47.966;10.268;2022-10-26T02:28:43;11.30;99.90
6788;DHT22;3431;47.966;10.268;2022-10-26T02:29:10;11.30;99.90
6788;DHT22;3431;47.966;10.268;2022-10-26T02:29:34;11.30;99.90
6788;DHT22;3431;47.966;10.268;2022-10-26T02:29:58;11.40;99.90
6788;DHT22;3431;47.966;10.268;2022-10-26T02:30:21;11.30;99.90
6788;DHT22;3431;47.966;10.268;2022-10-26T02:30:43;11.30;99.90
6788;DHT22;3431;47.966;10.268;2022-10-26T02:31:08;11.30;99.90
6788;DHT22;3431;47.966;10.268;2022-10-26T02:31:34;11.30;99.90
6788;DHT22;3431;47.966;10.268;2022-10-26T02:31:57;11.30;99.90
6788;DHT22;3431;47.966;10.268;2022-10-26T02:32:22;11.30;99.90
6788;DHT22;3431;47.966;10.268;2022-10-26T02:32:49;11.40;99.90
6788;DHT22;3431;47.966;10.268;2022-10-26T02:33:13;11.40;99.90
6788;DHT22;3431;47.966;10.268;2022-10-26T02:33:38;11.40;99.90
6788;DHT22;3431;47.966;10.268;2022-10-26T02:34:03;11.30;99.90
6788;DHT22;3431;47.966;10.268;2022-10-26T02:34:27;11.40;99.90
6788;DHT22;3431;47.966;10.268;2022-10-26T02:34:53;11.40;99.90
6788;DHT22;3431;47.966;10.268;2022-10-26T02:35:17;11.40;99.90
6788;DHT22;3431;47.966;10.268;2022-10-26T02:35:41;11.40;99.90
6788;DHT22;3431;47.966;10.268;2022-10-26T02:36:06;11.40;99.90
6788;DHT22;3431;47.966;10.268;2022-10-26T02:36:33;11.40;99.90
6788;DHT22;3431;47.966;10.268;2022-10-26T02:36:58;11.40;99.90
6788;DHT22;3431;47.966;10.268;2022-10-26T02:37:22;11.40;99.90
6788;DHT22;3431;47.966;10.268;2022-10-26T02:37:45;11.50;99.90
6788;DHT22;3431;47.966;10.268;2022-10-26T02:38:11;11.40;99.90
6788;DHT22;3431;47.966;10.268;2022-10-26T02:38:34;11.50;99.90
6788;DHT22;3431;47.966;10.268;2022-10-26T02:38:58;11.50;99.90
6788;DHT22;3431;47.966;10.268;2022-10-26T02:39:21;11.50;99.90
6788;DHT22;3431;47.966;10.268;2022-10-26T02:39:45;11.50;99.90
6788;DHT22;3431;47.966;10.268;2022-10-26T02:40:10;11.50;99.90
6788;DHT22;3431;47.966;10.268;2022-10-26T02:40:33;11.50;99.90
6788;DHT22;3431;47.966;10.268;2022-10-26T02:40:57;11.50;99.90
6788;DHT22;3431;47.966;10.268;2022-10-26T02:41:21;11.50;99.90
6788;DHT22;3431;47.966;10.268;2022-10-26T02:41:44;11.50;99.90
6788;DHT22;3431;47.966;10.268;2022-10-26T02:42:08;11.40;99.90
6788;DHT22;3431;47.966;10.268;2022-10-26T02:42:32;11.50;99.90
6788;DHT22;3431;47.966;10.268;2022-10-26T02:42:56;11.50;99.90
6788;DHT22;3431;47.966;10.268;2022-10-26T02:43:20;11.40;99.90
6788;DHT22;3431;47.966;10.268;2022-10-26T02:43:46;11.40;99.90
6788;DHT22;3431;47.966;10.268;2022-10-26T02:44:15;11.40;99.90
6788;DHT22;3431;47.966;10.268;2022-10-26T02:44:41;11.40;99.90
6788;DHT22;3431;47.966;10.268;2022-10-26T02:45:07;11.40;99.90
6788;DHT22;3431;47.966;10.268;2022-10-26T02:45:35;11.40;99.90
6788;DHT22;3431;47.966;10.268;2022-10-26T02:46:01;11.40;99.90
6788;DHT22;3431;47.966;10.268;2022-10-26T02:46:27;11.40;99.90
6788;DHT22;3431;47.966;10.268;2022-10-26T02:46:50;11.40;99.90